Tropical Cyclones
[Index]
Main Index Home Page Stock Weather Photos Extreme Storms Discussion Storm News and Storm Chasing Reports Tropical Cyclones / Hurricanes / Typhoons Weather Data and Links Wild Fires / Bushfires Weather Observation Techniques Weather Picture Catalogue Tornado Pictures and Reports Stock Video Footage and DVDs for sale
Season 1977-1978 Tropical Cyclone DIANA Track Map
Season 1977-1978 Summaries: [BoM-AU] [JTWC-AU] [JTWC-SIO] [JTWC-SPAC] [JTWC-SH]
<<- Previous TC | JTWC 1977-1978 Season | Next TC ->>

click for intensity scale information  Lat/long Grid: Show Hide

 Date Labels: Show Hide

Joint Typhoon Warning Centre Cyclone Data

Name: DIANA
Number: 978 / 7822

16 Feb 1978 00:00 UTC to 22 Feb 1978 00:00 UTC

    date/time    lat    long     hPa   cat  kts
1978-02-16 00   16.4   159.3W                 30          
1978-02-16 06   16.6   157.7W                 30          
1978-02-16 12   16.7   156.5W                 35          
1978-02-16 18   16.8   155.7W           1     45          
1978-02-17 00   16.8   155.0W           1     50          
1978-02-17 06   16.8   153.9W           1     50          
1978-02-17 12   17.0   152.7W           1     50          
1978-02-17 18   17.4   151.9W           1     50          
1978-02-18 00   18.0   151.5W           1     50          
1978-02-18 06   18.6   151.7W           1     50          
1978-02-18 12   19.1   152.0W           1     50          
1978-02-18 18   18.8   152.0W           1     45          
1978-02-19 00   18.5   152.0W           1     45          
1978-02-19 06   19.2   152.0W           1     45          
1978-02-19 12   20.0   152.1W           1     40          
1978-02-19 18   20.5   152.5W                 35          
1978-02-20 00   21.0   153.0W                 35          
1978-02-20 06   22.0   153.4W                 35          
1978-02-20 12   23.0   153.8W                 35          
1978-02-20 18   23.7   154.0W                 35          
1978-02-21 00   24.5   153.5W                 35          
1978-02-21 06   25.6   152.4W                 35          
1978-02-21 12   26.8   151.0W                 35          
1978-02-21 18   27.5   149.5W                 30          
1978-02-22 00   28.0   148.0W                 30          
Winds are 1-min average.

Tropical cyclone tracks developed by Michael Bath using data from the Joint Typhoon Warning Centre Best Tracks and Google Maps.


[Australian Severe Weather index] [Copyright Notice] [Email Contacts] [Search This Site] [Privacy Policy]
Document: tropical_cyclone_diana.htm Updated: 18 September 2016